sensor_id;sensor_type;location;lat;lon;timestamp;P1;durP1;ratioP1;P2;durP2;ratioP2
15899;SDS011;8048;50.644;6.184;2022-08-18T00:02:18;7.50;;;6.80;;
15899;SDS011;8048;50.644;6.184;2022-08-18T00:04:46;8.17;;;7.43;;
15899;SDS011;8048;50.644;6.184;2022-08-18T00:07:13;7.97;;;6.90;;
15899;SDS011;8048;50.644;6.184;2022-08-18T00:09:41;8.37;;;7.57;;
15899;SDS011;8048;50.644;6.184;2022-08-18T00:12:19;7.20;;;6.50;;
15899;SDS011;8048;50.644;6.184;2022-08-18T00:14:50;6.97;;;6.27;;
15899;SDS011;8048;50.644;6.184;2022-08-18T00:17:16;8.07;;;7.27;;
15899;SDS011;8048;50.644;6.184;2022-08-18T00:19:43;7.63;;;6.93;;
15899;SDS011;8048;50.644;6.184;2022-08-18T00:22:10;7.50;;;6.80;;
15899;SDS011;8048;50.644;6.184;2022-08-18T00:24:37;8.50;;;7.70;;
15899;SDS011;8048;50.644;6.184;2022-08-18T00:27:03;7.30;;;6.60;;
15899;SDS011;8048;50.644;6.184;2022-08-18T00:29:30;8.17;;;7.50;;
15899;SDS011;8048;50.644;6.184;2022-08-18T00:31:56;8.03;;;7.37;;
15899;SDS011;8048;50.644;6.184;2022-08-18T00:34:21;7.27;;;6.60;;
15899;SDS011;8048;50.644;6.184;2022-08-18T00:36:47;9.23;;;8.40;;
15899;SDS011;8048;50.644;6.184;2022-08-18T00:39:14;6.70;;;6.07;;
15899;SDS011;8048;50.644;6.184;2022-08-18T00:41:40;8.47;;;7.30;;
15899;SDS011;8048;50.644;6.184;2022-08-18T00:44:05;8.07;;;7.37;;
15899;SDS011;8048;50.644;6.184;2022-08-18T00:46:32;9.07;;;7.10;;
15899;SDS011;8048;50.644;6.184;2022-08-18T00:48:59;8.50;;;7.80;;
15899;SDS011;8048;50.644;6.184;2022-08-18T00:54:20;7.00;;;6.40;;
15899;SDS011;8048;50.644;6.184;2022-08-18T00:56:52;7.10;;;6.47;;
15899;SDS011;8048;50.644;6.184;2022-08-18T01:00:05;8.17;;;7.37;;
15899;SDS011;8048;50.644;6.184;2022-08-18T01:02:30;8.67;;;7.77;;
15899;SDS011;8048;50.644;6.184;2022-08-18T01:05:47;7.90;;;7.20;;
15899;SDS011;8048;50.644;6.184;2022-08-18T01:07:48;7.67;;;6.90;;
15899;SDS011;8048;50.644;6.184;2022-08-18T01:10:16;7.93;;;6.90;;
15899;SDS011;8048;50.644;6.184;2022-08-18T01:12:54;11.93;;;8.40;;
15899;SDS011;8048;50.644;6.184;2022-08-18T01:15:21;7.73;;;7.03;;
15899;SDS011;8048;50.644;6.184;2022-08-18T01:17:49;7.57;;;6.80;;
15899;SDS011;8048;50.644;6.184;2022-08-18T01:20:54;7.80;;;7.00;;
15899;SDS011;8048;50.644;6.184;2022-08-18T01:23:49;8.03;;;7.20;;
15899;SDS011;8048;50.644;6.184;2022-08-18T01:26:17;11.20;;;7.37;;
15899;SDS011;8048;50.644;6.184;2022-08-18T01:28:44;7.20;;;6.50;;
15899;SDS011;8048;50.644;6.184;2022-08-18T01:31:11;7.17;;;6.57;;
15899;SDS011;8048;50.644;6.184;2022-08-18T01:33:52;7.90;;;7.07;;
15899;SDS011;8048;50.644;6.184;2022-08-18T01:36:19;7.40;;;6.70;;
15899;SDS011;8048;50.644;6.184;2022-08-18T01:38:47;8.43;;;7.70;;
15899;SDS011;8048;50.644;6.184;2022-08-18T01:41:17;9.37;;;8.53;;
15899;SDS011;8048;50.644;6.184;2022-08-18T01:43:45;8.40;;;7.70;;
15899;SDS011;8048;50.644;6.184;2022-08-18T01:46:12;8.80;;;7.93;;
15899;SDS011;8048;50.644;6.184;2022-08-18T01:48:42;8.73;;;7.83;;
15899;SDS011;8048;50.644;6.184;2022-08-18T01:51:08;7.53;;;6.80;;
15899;SDS011;8048;50.644;6.184;2022-08-18T01:53:35;9.00;;;7.87;;
15899;SDS011;8048;50.644;6.184;2022-08-18T01:56:00;8.03;;;7.30;;
15899;SDS011;8048;50.644;6.184;2022-08-18T01:58:29;8.00;;;7.20;;
15899;SDS011;8048;50.644;6.184;2022-08-18T02:00:58;10.70;;;8.40;;
15899;SDS011;8048;50.644;6.184;2022-08-18T02:03:27;8.43;;;7.50;;
15899;SDS011;8048;50.644;6.184;2022-08-18T02:06:00;12.00;;;7.77;;
15899;SDS011;8048;50.644;6.184;2022-08-18T02:08:27;10.13;;;7.47;;
15899;SDS011;8048;50.644;6.184;2022-08-18T02:10:53;8.40;;;7.60;;
15899;SDS011;8048;50.644;6.184;2022-08-18T02:13:18;8.23;;;7.40;;
15899;SDS011;8048;50.644;6.184;2022-08-18T02:15:44;7.57;;;6.60;;
15899;SDS011;8048;50.644;6.184;2022-08-18T02:18:17;7.00;;;6.33;;
15899;SDS011;8048;50.644;6.184;2022-08-18T02:20:51;8.07;;;7.27;;
15899;SDS011;8048;50.644;6.184;2022-08-18T02:23:17;9.13;;;7.50;;
15899;SDS011;8048;50.644;6.184;2022-08-18T02:25:43;8.00;;;7.30;;
15899;SDS011;8048;50.644;6.184;2022-08-18T02:28:08;7.57;;;6.90;;
15899;SDS011;8048;50.644;6.184;2022-08-18T02:30:34;7.97;;;7.20;;
15899;SDS011;8048;50.644;6.184;2022-08-18T02:33:07;7.17;;;6.60;;
15899;SDS011;8048;50.644;6.184;2022-08-18T02:35:34;9.13;;;7.73;;
15899;SDS011;8048;50.644;6.184;2022-08-18T02:38:01;8.90;;;8.00;;
15899;SDS011;8048;50.644;6.184;2022-08-18T02:40:28;9.67;;;8.00;;
15899;SDS011;8048;50.644;6.184;2022-08-18T02:42:54;6.37;;;5.77;;
15899;SDS011;8048;50.644;6.184;2022-08-18T02:45:20;8.43;;;7.53;;
15899;SDS011;8048;50.644;6.184;2022-08-18T02:47:51;7.60;;;6.90;;
15899;SDS011;8048;50.644;6.184;2022-08-18T02:50:17;9.40;;;8.43;;
15899;SDS011;8048;50.644;6.184;2022-08-18T02:52:43;8.37;;;7.50;;
15899;SDS011;8048;50.644;6.184;2022-08-18T02:55:09;8.33;;;7.50;;
15899;SDS011;8048;50.644;6.184;2022-08-18T02:57:34;7.90;;;7.20;;
15899;SDS011;8048;50.644;6.184;2022-08-18T03:00:00;9.17;;;8.23;;
15899;SDS011;8048;50.644;6.184;2022-08-18T03:02:26;8.80;;;7.90;;
15899;SDS011;8048;50.644;6.184;2022-08-18T03:04:52;7.90;;;7.10;;
15899;SDS011;8048;50.644;6.184;2022-08-18T03:07:17;9.27;;;8.27;;
15899;SDS011;8048;50.644;6.184;2022-08-18T03:09:43;9.33;;;7.80;;
15899;SDS011;8048;50.644;6.184;2022-08-18T03:12:09;8.67;;;7.77;;
15899;SDS011;8048;50.644;6.184;2022-08-18T03:14:35;8.90;;;8.10;;
15899;SDS011;8048;50.644;6.184;2022-08-18T03:17:05;8.50;;;7.60;;
15899;SDS011;8048;50.644;6.184;2022-08-18T03:19:33;9.80;;;8.17;;
15899;SDS011;8048;50.644;6.184;2022-08-18T03:21:59;11.03;;;8.00;;
15899;SDS011;8048;50.644;6.184;2022-08-18T03:24:25;9.37;;;8.43;;
15899;SDS011;8048;50.644;6.184;2022-08-18T03:26:52;9.60;;;8.60;;
15899;SDS011;8048;50.644;6.184;2022-08-18T03:29:20;8.93;;;7.63;;
15899;SDS011;8048;50.644;6.184;2022-08-18T03:31:46;9.40;;;8.37;;
15899;SDS011;8048;50.644;6.184;2022-08-18T03:34:12;9.27;;;7.93;;
15899;SDS011;8048;50.644;6.184;2022-08-18T03:36:46;12.43;;;8.50;;
15899;SDS011;8048;50.644;6.184;2022-08-18T03:39:15;9.40;;;8.47;;
15899;SDS011;8048;50.644;6.184;2022-08-18T03:41:43;7.70;;;6.97;;
15899;SDS011;8048;50.644;6.184;2022-08-18T03:44:10;10.20;;;8.77;;
15899;SDS011;8048;50.644;6.184;2022-08-18T03:46:38;9.00;;;8.10;;
15899;SDS011;8048;50.644;6.184;2022-08-18T03:49:05;8.70;;;7.90;;
15899;SDS011;8048;50.644;6.184;2022-08-18T03:51:32;8.63;;;7.63;;
15899;SDS011;8048;50.644;6.184;2022-08-18T03:53:59;14.50;;;9.17;;
15899;SDS011;8048;50.644;6.184;2022-08-18T03:56:29;9.37;;;8.47;;
15899;SDS011;8048;50.644;6.184;2022-08-18T03:59:00;9.40;;;8.03;;
15899;SDS011;8048;50.644;6.184;2022-08-18T04:01:29;8.60;;;7.40;;
15899;SDS011;8048;50.644;6.184;2022-08-18T04:03:58;9.17;;;8.30;;
15899;SDS011;8048;50.644;6.184;2022-08-18T04:06:27;11.63;;;9.60;;
15899;SDS011;8048;50.644;6.184;2022-08-18T04:08:56;10.03;;;8.33;;
15899;SDS011;8048;50.644;6.184;2022-08-18T04:11:24;9.50;;;7.13;;
15899;SDS011;8048;50.644;6.184;2022-08-18T04:13:52;9.53;;;8.57;;
15899;SDS011;8048;50.644;6.184;2022-08-18T04:16:18;8.53;;;7.57;;
15899;SDS011;8048;50.644;6.184;2022-08-18T04:18:44;8.47;;;7.67;;
15899;SDS011;8048;50.644;6.184;2022-08-18T04:21:10;9.50;;;8.50;;
15899;SDS011;8048;50.644;6.184;2022-08-18T04:23:37;11.33;;;8.50;;
15899;SDS011;8048;50.644;6.184;2022-08-18T04:26:05;7.83;;;6.90;;
15899;SDS011;8048;50.644;6.184;2022-08-18T04:28:32;8.53;;;7.63;;
15899;SDS011;8048;50.644;6.184;2022-08-18T04:30:58;9.37;;;7.60;;
15899;SDS011;8048;50.644;6.184;2022-08-18T04:33:29;9.70;;;8.80;;
15899;SDS011;8048;50.644;6.184;2022-08-18T04:35:54;10.27;;;8.77;;
15899;SDS011;8048;50.644;6.184;2022-08-18T04:38:20;10.17;;;8.30;;
15899;SDS011;8048;50.644;6.184;2022-08-18T04:40:47;8.37;;;7.53;;
15899;SDS011;8048;50.644;6.184;2022-08-18T04:43:13;9.23;;;8.27;;
15899;SDS011;8048;50.644;6.184;2022-08-18T04:45:45;9.80;;;8.10;;
15899;SDS011;8048;50.644;6.184;2022-08-18T04:48:12;8.33;;;6.80;;
15899;SDS011;8048;50.644;6.184;2022-08-18T04:50:40;8.13;;;7.33;;
15899;SDS011;8048;50.644;6.184;2022-08-18T04:53:06;9.43;;;7.83;;
15899;SDS011;8048;50.644;6.184;2022-08-18T04:55:52;7.87;;;7.07;;
15899;SDS011;8048;50.644;6.184;2022-08-18T04:58:20;9.20;;;7.40;;
15899;SDS011;8048;50.644;6.184;2022-08-18T05:00:55;10.40;;;9.07;;
15899;SDS011;8048;50.644;6.184;2022-08-18T05:03:25;9.10;;;7.93;;
15899;SDS011;8048;50.644;6.184;2022-08-18T05:05:52;10.33;;;7.80;;
15899;SDS011;8048;50.644;6.184;2022-08-18T05:08:19;8.93;;;8.13;;
15899;SDS011;8048;50.644;6.184;2022-08-18T05:10:46;11.90;;;8.97;;
15899;SDS011;8048;50.644;6.184;2022-08-18T05:13:12;10.90;;;8.43;;
15899;SDS011;8048;50.644;6.184;2022-08-18T05:15:41;8.73;;;7.93;;
15899;SDS011;8048;50.644;6.184;2022-08-18T05:18:07;10.10;;;7.33;;
15899;SDS011;8048;50.644;6.184;2022-08-18T05:20:33;8.17;;;7.37;;
15899;SDS011;8048;50.644;6.184;2022-08-18T05:23:01;10.23;;;8.63;;
15899;SDS011;8048;50.644;6.184;2022-08-18T05:25:27;11.47;;;8.47;;
15899;SDS011;8048;50.644;6.184;2022-08-18T05:27:53;10.70;;;8.90;;
15899;SDS011;8048;50.644;6.184;2022-08-18T05:30:19;8.20;;;7.37;;
15899;SDS011;8048;50.644;6.184;2022-08-18T05:32:45;9.60;;;8.57;;
15899;SDS011;8048;50.644;6.184;2022-08-18T05:35:13;10.33;;;9.23;;
15899;SDS011;8048;50.644;6.184;2022-08-18T05:40:32;8.97;;;7.83;;
15899;SDS011;8048;50.644;6.184;2022-08-18T05:42:58;10.57;;;9.23;;
15899;SDS011;8048;50.644;6.184;2022-08-18T05:45:24;9.50;;;8.50;;
15899;SDS011;8048;50.644;6.184;2022-08-18T05:47:51;13.43;;;10.07;;
15899;SDS011;8048;50.644;6.184;2022-08-18T05:50:23;11.20;;;9.73;;
15899;SDS011;8048;50.644;6.184;2022-08-18T05:52:54;13.50;;;10.93;;
15899;SDS011;8048;50.644;6.184;2022-08-18T05:58:37;15.23;;;11.03;;
15899;SDS011;8048;50.644;6.184;2022-08-18T06:01:23;11.83;;;10.00;;
15899;SDS011;8048;50.644;6.184;2022-08-18T06:04:00;18.93;;;14.97;;
15899;SDS011;8048;50.644;6.184;2022-08-18T06:06:32;16.20;;;13.27;;
15899;SDS011;8048;50.644;6.184;2022-08-18T06:11:29;17.47;;;12.70;;
15899;SDS011;8048;50.644;6.184;2022-08-18T06:13:55;22.57;;;15.57;;
15899;SDS011;8048;50.644;6.184;2022-08-18T06:16:27;16.77;;;13.50;;
15899;SDS011;8048;50.644;6.184;2022-08-18T06:32:23;24.10;;;18.03;;
15899;SDS011;8048;50.644;6.184;2022-08-18T06:37:57;26.67;;;18.80;;
15899;SDS011;8048;50.644;6.184;2022-08-18T06:41:08;28.50;;;21.30;;
15899;SDS011;8048;50.644;6.184;2022-08-18T06:46:24;33.90;;;21.53;;
15899;SDS011;8048;50.644;6.184;2022-08-18T06:49:09;45.20;;;27.80;;
15899;SDS011;8048;50.644;6.184;2022-08-18T06:51:36;40.03;;;25.47;;
15899;SDS011;8048;50.644;6.184;2022-08-18T06:54:07;39.07;;;24.20;;
15899;SDS011;8048;50.644;6.184;2022-08-18T06:56:59;47.10;;;26.70;;
15899;SDS011;8048;50.644;6.184;2022-08-18T06:59:26;43.53;;;29.43;;
15899;SDS011;8048;50.644;6.184;2022-08-18T07:01:59;57.13;;;31.57;;
15899;SDS011;8048;50.644;6.184;2022-08-18T07:04:36;44.50;;;26.37;;
15899;SDS011;8048;50.644;6.184;2022-08-18T07:07:13;43.10;;;25.77;;
15899;SDS011;8048;50.644;6.184;2022-08-18T07:09:39;57.27;;;28.97;;
15899;SDS011;8048;50.644;6.184;2022-08-18T07:12:06;46.80;;;29.90;;
15899;SDS011;8048;50.644;6.184;2022-08-18T07:14:44;41.60;;;24.83;;
15899;SDS011;8048;50.644;6.184;2022-08-18T07:17:13;55.90;;;30.03;;
15899;SDS011;8048;50.644;6.184;2022-08-18T07:19:54;42.63;;;24.63;;
15899;SDS011;8048;50.644;6.184;2022-08-18T07:22:22;46.30;;;28.50;;
15899;SDS011;8048;50.644;6.184;2022-08-18T07:24:48;45.30;;;26.43;;
15899;SDS011;8048;50.644;6.184;2022-08-18T07:30:00;49.40;;;27.30;;
15899;SDS011;8048;50.644;6.184;2022-08-18T07:32:34;46.70;;;27.23;;
15899;SDS011;8048;50.644;6.184;2022-08-18T07:35:07;44.20;;;26.70;;
15899;SDS011;8048;50.644;6.184;2022-08-18T07:37:38;46.27;;;29.50;;
15899;SDS011;8048;50.644;6.184;2022-08-18T07:40:40;52.50;;;32.10;;
15899;SDS011;8048;50.644;6.184;2022-08-18T07:43:32;48.20;;;30.80;;
15899;SDS011;8048;50.644;6.184;2022-08-18T07:46:11;54.47;;;32.77;;
15899;SDS011;8048;50.644;6.184;2022-08-18T07:48:41;47.30;;;29.07;;
15899;SDS011;8048;50.644;6.184;2022-08-18T07:51:14;41.30;;;26.50;;
15899;SDS011;8048;50.644;6.184;2022-08-18T08:04:39;34.27;;;24.30;;
15899;SDS011;8048;50.644;6.184;2022-08-18T08:07:09;28.50;;;22.33;;
15899;SDS011;8048;50.644;6.184;2022-08-18T08:09:56;30.23;;;22.17;;
15899;SDS011;8048;50.644;6.184;2022-08-18T08:15:30;27.23;;;20.00;;
15899;SDS011;8048;50.644;6.184;2022-08-18T08:18:27;32.63;;;24.00;;
15899;SDS011;8048;50.644;6.184;2022-08-18T08:21:09;32.63;;;21.83;;
15899;SDS011;8048;50.644;6.184;2022-08-18T08:23:47;24.30;;;19.60;;
15899;SDS011;8048;50.644;6.184;2022-08-18T08:29:59;27.00;;;19.47;;
15899;SDS011;8048;50.644;6.184;2022-08-18T08:32:43;26.87;;;19.17;;
15899;SDS011;8048;50.644;6.184;2022-08-18T08:35:12;22.70;;;19.40;;
15899;SDS011;8048;50.644;6.184;2022-08-18T08:37:43;25.33;;;19.70;;
15899;SDS011;8048;50.644;6.184;2022-08-18T08:45:32;19.23;;;16.80;;
15899;SDS011;8048;50.644;6.184;2022-08-18T08:56:51;23.20;;;16.77;;
15899;SDS011;8048;50.644;6.184;2022-08-18T08:59:19;18.73;;;15.80;;
15899;SDS011;8048;50.644;6.184;2022-08-18T09:15:28;20.43;;;15.77;;
15899;SDS011;8048;50.644;6.184;2022-08-18T09:20:47;18.37;;;13.63;;
15899;SDS011;8048;50.644;6.184;2022-08-18T09:23:39;19.17;;;13.90;;
15899;SDS011;8048;50.644;6.184;2022-08-18T09:26:21;21.10;;;15.50;;
15899;SDS011;8048;50.644;6.184;2022-08-18T09:29:11;22.70;;;16.10;;
15899;SDS011;8048;50.644;6.184;2022-08-18T09:31:42;18.27;;;13.83;;
15899;SDS011;8048;50.644;6.184;2022-08-18T09:36:59;21.23;;;14.87;;
15899;SDS011;8048;50.644;6.184;2022-08-18T09:39:35;21.10;;;17.27;;
15899;SDS011;8048;50.644;6.184;2022-08-18T09:42:27;17.60;;;14.07;;
15899;SDS011;8048;50.644;6.184;2022-08-18T09:45:02;20.40;;;15.03;;
15899;SDS011;8048;50.644;6.184;2022-08-18T10:06:39;18.40;;;15.40;;
15899;SDS011;8048;50.644;6.184;2022-08-18T10:09:13;18.47;;;14.60;;
15899;SDS011;8048;50.644;6.184;2022-08-18T10:11:49;18.13;;;14.33;;
15899;SDS011;8048;50.644;6.184;2022-08-18T10:22:38;22.20;;;16.13;;
15899;SDS011;8048;50.644;6.184;2022-08-18T10:25:10;19.70;;;13.97;;
15899;SDS011;8048;50.644;6.184;2022-08-18T10:32:54;17.07;;;15.10;;
15899;SDS011;8048;50.644;6.184;2022-08-18T10:40:41;18.63;;;15.10;;
15899;SDS011;8048;50.644;6.184;2022-08-18T10:43:28;14.80;;;12.63;;
15899;SDS011;8048;50.644;6.184;2022-08-18T10:45:59;19.83;;;15.20;;
15899;SDS011;8048;50.644;6.184;2022-08-18T10:48:26;17.83;;;14.83;;
15899;SDS011;8048;50.644;6.184;2022-08-18T10:51:12;14.60;;;12.90;;
15899;SDS011;8048;50.644;6.184;2022-08-18T10:53:53;15.87;;;13.27;;
15899;SDS011;8048;50.644;6.184;2022-08-18T10:56:52;19.50;;;14.80;;
15899;SDS011;8048;50.644;6.184;2022-08-18T10:59:30;13.47;;;12.10;;
15899;SDS011;8048;50.644;6.184;2022-08-18T11:04:36;17.10;;;14.37;;
15899;SDS011;8048;50.644;6.184;2022-08-18T11:07:17;13.90;;;12.60;;
15899;SDS011;8048;50.644;6.184;2022-08-18T11:09:46;14.97;;;11.10;;
15899;SDS011;8048;50.644;6.184;2022-08-18T11:12:14;14.30;;;12.37;;
15899;SDS011;8048;50.644;6.184;2022-08-18T11:15:20;13.27;;;11.87;;
15899;SDS011;8048;50.644;6.184;2022-08-18T11:20:39;15.17;;;13.60;;
15899;SDS011;8048;50.644;6.184;2022-08-18T11:23:11;16.10;;;13.47;;
15899;SDS011;8048;50.644;6.184;2022-08-18T11:25:39;16.10;;;13.10;;
15899;SDS011;8048;50.644;6.184;2022-08-18T11:28:19;18.40;;;12.30;;
15899;SDS011;8048;50.644;6.184;2022-08-18T11:30:48;13.60;;;11.87;;
15899;SDS011;8048;50.644;6.184;2022-08-18T11:33:16;21.17;;;16.10;;
15899;SDS011;8048;50.644;6.184;2022-08-18T11:36:04;14.60;;;12.93;;
15899;SDS011;8048;50.644;6.184;2022-08-18T11:38:30;17.57;;;12.83;;
15899;SDS011;8048;50.644;6.184;2022-08-18T11:41:17;16.10;;;12.20;;
15899;SDS011;8048;50.644;6.184;2022-08-18T11:43:47;15.73;;;13.00;;
15899;SDS011;8048;50.644;6.184;2022-08-18T11:48:45;17.30;;;15.30;;
15899;SDS011;8048;50.644;6.184;2022-08-18T12:01:35;19.23;;;14.17;;
15899;SDS011;8048;50.644;6.184;2022-08-18T12:04:28;21.70;;;14.17;;
15899;SDS011;8048;50.644;6.184;2022-08-18T12:07:02;17.30;;;13.47;;
15899;SDS011;8048;50.644;6.184;2022-08-18T12:12:04;17.00;;;13.20;;
15899;SDS011;8048;50.644;6.184;2022-08-18T12:17:17;21.70;;;18.43;;
15899;SDS011;8048;50.644;6.184;2022-08-18T12:19:43;19.70;;;15.50;;
15899;SDS011;8048;50.644;6.184;2022-08-18T12:22:13;21.10;;;16.40;;
15899;SDS011;8048;50.644;6.184;2022-08-18T12:24:42;19.13;;;15.37;;
15899;SDS011;8048;50.644;6.184;2022-08-18T12:27:09;16.27;;;14.40;;
15899;SDS011;8048;50.644;6.184;2022-08-18T12:29:40;20.10;;;15.30;;
15899;SDS011;8048;50.644;6.184;2022-08-18T12:32:06;15.00;;;13.40;;
15899;SDS011;8048;50.644;6.184;2022-08-18T12:34:33;19.03;;;13.50;;
15899;SDS011;8048;50.644;6.184;2022-08-18T12:36:59;16.10;;;12.83;;
15899;SDS011;8048;50.644;6.184;2022-08-18T12:39:25;15.37;;;13.60;;
15899;SDS011;8048;50.644;6.184;2022-08-18T12:41:52;19.37;;;14.20;;
15899;SDS011;8048;50.644;6.184;2022-08-18T12:44:18;15.97;;;13.80;;
15899;SDS011;8048;50.644;6.184;2022-08-18T12:46:44;14.33;;;12.70;;
15899;SDS011;8048;50.644;6.184;2022-08-18T12:49:14;14.17;;;11.70;;
15899;SDS011;8048;50.644;6.184;2022-08-18T12:51:42;14.67;;;13.17;;
15899;SDS011;8048;50.644;6.184;2022-08-18T12:54:08;14.30;;;12.90;;
15899;SDS011;8048;50.644;6.184;2022-08-18T12:56:34;16.17;;;14.40;;
15899;SDS011;8048;50.644;6.184;2022-08-18T12:59:01;15.47;;;13.90;;
15899;SDS011;8048;50.644;6.184;2022-08-18T13:01:30;14.23;;;12.80;;
15899;SDS011;8048;50.644;6.184;2022-08-18T13:03:56;14.17;;;12.70;;
15899;SDS011;8048;50.644;6.184;2022-08-18T13:06:23;18.00;;;13.87;;
15899;SDS011;8048;50.644;6.184;2022-08-18T13:08:50;13.93;;;12.63;;
15899;SDS011;8048;50.644;6.184;2022-08-18T13:11:16;13.00;;;11.60;;
15899;SDS011;8048;50.644;6.184;2022-08-18T13:13:43;13.17;;;11.97;;
15899;SDS011;8048;50.644;6.184;2022-08-18T13:16:09;12.97;;;11.77;;
15899;SDS011;8048;50.644;6.184;2022-08-18T13:18:36;13.33;;;12.13;;
15899;SDS011;8048;50.644;6.184;2022-08-18T13:21:06;13.60;;;12.20;;
15899;SDS011;8048;50.644;6.184;2022-08-18T13:23:32;11.33;;;10.33;;
15899;SDS011;8048;50.644;6.184;2022-08-18T13:25:58;11.70;;;10.67;;
15899;SDS011;8048;50.644;6.184;2022-08-18T13:28:25;12.30;;;11.20;;
15899;SDS011;8048;50.644;6.184;2022-08-18T13:30:51;10.40;;;9.40;;
15899;SDS011;8048;50.644;6.184;2022-08-18T13:33:17;10.17;;;9.23;;
15899;SDS011;8048;50.644;6.184;2022-08-18T13:35:44;12.90;;;11.63;;
15899;SDS011;8048;50.644;6.184;2022-08-18T13:38:12;11.17;;;10.07;;
15899;SDS011;8048;50.644;6.184;2022-08-18T13:40:39;12.43;;;11.23;;
15899;SDS011;8048;50.644;6.184;2022-08-18T13:43:04;11.53;;;9.60;;
15899;SDS011;8048;50.644;6.184;2022-08-18T13:45:32;11.17;;;10.17;;
15899;SDS011;8048;50.644;6.184;2022-08-18T13:47:58;10.47;;;9.47;;
15899;SDS011;8048;50.644;6.184;2022-08-18T13:50:23;9.07;;;8.17;;
15899;SDS011;8048;50.644;6.184;2022-08-18T13:52:49;11.23;;;10.13;;
15899;SDS011;8048;50.644;6.184;2022-08-18T13:55:15;11.43;;;9.23;;
15899;SDS011;8048;50.644;6.184;2022-08-18T13:57:42;11.00;;;9.40;;
15899;SDS011;8048;50.644;6.184;2022-08-18T14:00:19;11.13;;;10.23;;
15899;SDS011;8048;50.644;6.184;2022-08-18T14:02:46;10.50;;;9.50;;
15899;SDS011;8048;50.644;6.184;2022-08-18T14:05:19;11.10;;;10.20;;
15899;SDS011;8048;50.644;6.184;2022-08-18T14:07:46;11.30;;;10.20;;
15899;SDS011;8048;50.644;6.184;2022-08-18T14:10:11;10.97;;;9.87;;
15899;SDS011;8048;50.644;6.184;2022-08-18T14:12:38;12.50;;;11.20;;
15899;SDS011;8048;50.644;6.184;2022-08-18T14:15:06;10.40;;;9.50;;
15899;SDS011;8048;50.644;6.184;2022-08-18T14:17:36;14.27;;;12.90;;
15899;SDS011;8048;50.644;6.184;2022-08-18T14:20:02;12.30;;;11.20;;
15899;SDS011;8048;50.644;6.184;2022-08-18T14:22:49;12.90;;;11.67;;
15899;SDS011;8048;50.644;6.184;2022-08-18T14:25:35;12.53;;;11.07;;
15899;SDS011;8048;50.644;6.184;2022-08-18T14:28:19;11.97;;;10.80;;
15899;SDS011;8048;50.644;6.184;2022-08-18T14:30:45;11.73;;;10.73;;
15899;SDS011;8048;50.644;6.184;2022-08-18T14:33:11;13.10;;;11.90;;
15899;SDS011;8048;50.644;6.184;2022-08-18T14:35:39;11.47;;;10.47;;
15899;SDS011;8048;50.644;6.184;2022-08-18T14:38:05;9.83;;;8.90;;
15899;SDS011;8048;50.644;6.184;2022-08-18T14:40:32;10.77;;;9.67;;
15899;SDS011;8048;50.644;6.184;2022-08-18T14:42:59;10.70;;;9.70;;
15899;SDS011;8048;50.644;6.184;2022-08-18T14:45:26;10.90;;;9.90;;
15899;SDS011;8048;50.644;6.184;2022-08-18T14:47:53;10.80;;;9.70;;
15899;SDS011;8048;50.644;6.184;2022-08-18T14:50:19;10.10;;;9.20;;
15899;SDS011;8048;50.644;6.184;2022-08-18T14:52:46;11.33;;;10.40;;
15899;SDS011;8048;50.644;6.184;2022-08-18T14:55:12;9.53;;;8.73;;
15899;SDS011;8048;50.644;6.184;2022-08-18T14:57:39;9.30;;;8.30;;
15899;SDS011;8048;50.644;6.184;2022-08-18T15:00:06;13.00;;;11.53;;
15899;SDS011;8048;50.644;6.184;2022-08-18T15:02:36;10.37;;;9.40;;
15899;SDS011;8048;50.644;6.184;2022-08-18T15:05:02;12.10;;;10.97;;
15899;SDS011;8048;50.644;6.184;2022-08-18T15:07:29;10.43;;;9.63;;
15899;SDS011;8048;50.644;6.184;2022-08-18T15:09:55;8.63;;;7.97;;
15899;SDS011;8048;50.644;6.184;2022-08-18T15:12:22;8.43;;;7.60;;
15899;SDS011;8048;50.644;6.184;2022-08-18T15:14:48;7.50;;;6.90;;
15899;SDS011;8048;50.644;6.184;2022-08-18T15:17:14;9.37;;;8.37;;
15899;SDS011;8048;50.644;6.184;2022-08-18T15:19:40;7.70;;;7.10;;
15899;SDS011;8048;50.644;6.184;2022-08-18T15:22:07;7.40;;;6.80;;
15899;SDS011;8048;50.644;6.184;2022-08-18T15:24:52;8.70;;;8.10;;
15899;SDS011;8048;50.644;6.184;2022-08-18T15:27:46;8.50;;;7.70;;
15899;SDS011;8048;50.644;6.184;2022-08-18T15:30:13;7.63;;;7.03;;
15899;SDS011;8048;50.644;6.184;2022-08-18T15:32:41;7.47;;;6.87;;
15899;SDS011;8048;50.644;6.184;2022-08-18T15:35:07;6.73;;;6.33;;
15899;SDS011;8048;50.644;6.184;2022-08-18T15:37:34;7.10;;;6.50;;
15899;SDS011;8048;50.644;6.184;2022-08-18T15:40:05;7.17;;;6.60;;
15899;SDS011;8048;50.644;6.184;2022-08-18T15:42:43;7.50;;;6.90;;
15899;SDS011;8048;50.644;6.184;2022-08-18T15:45:17;7.77;;;7.17;;
15899;SDS011;8048;50.644;6.184;2022-08-18T15:47:52;8.57;;;7.87;;
15899;SDS011;8048;50.644;6.184;2022-08-18T15:50:18;8.43;;;7.17;;
15899;SDS011;8048;50.644;6.184;2022-08-18T15:52:48;7.50;;;6.90;;
15899;SDS011;8048;50.644;6.184;2022-08-18T15:55:16;10.07;;;9.20;;
15899;SDS011;8048;50.644;6.184;2022-08-18T15:57:43;7.77;;;7.07;;
15899;SDS011;8048;50.644;6.184;2022-08-18T16:00:10;9.10;;;7.60;;
15899;SDS011;8048;50.644;6.184;2022-08-18T16:02:36;8.20;;;7.50;;
15899;SDS011;8048;50.644;6.184;2022-08-18T16:05:04;7.80;;;7.17;;
15899;SDS011;8048;50.644;6.184;2022-08-18T16:07:31;8.57;;;7.87;;
15899;SDS011;8048;50.644;6.184;2022-08-18T16:09:57;8.90;;;8.20;;
15899;SDS011;8048;50.644;6.184;2022-08-18T16:12:22;7.87;;;7.27;;
15899;SDS011;8048;50.644;6.184;2022-08-18T16:14:48;6.90;;;6.40;;
15899;SDS011;8048;50.644;6.184;2022-08-18T16:17:16;8.43;;;7.70;;
15899;SDS011;8048;50.644;6.184;2022-08-18T16:19:43;7.70;;;7.10;;
15899;SDS011;8048;50.644;6.184;2022-08-18T16:22:08;7.07;;;6.40;;
15899;SDS011;8048;50.644;6.184;2022-08-18T16:24:34;7.80;;;7.20;;
15899;SDS011;8048;50.644;6.184;2022-08-18T16:26:59;7.27;;;6.67;;
15899;SDS011;8048;50.644;6.184;2022-08-18T16:29:25;6.70;;;6.30;;
15899;SDS011;8048;50.644;6.184;2022-08-18T16:31:50;7.73;;;7.13;;
15899;SDS011;8048;50.644;6.184;2022-08-18T16:34:16;6.83;;;6.43;;
15899;SDS011;8048;50.644;6.184;2022-08-18T16:36:42;6.80;;;6.30;;
15899;SDS011;8048;50.644;6.184;2022-08-18T16:39:07;8.20;;;7.50;;
15899;SDS011;8048;50.644;6.184;2022-08-18T16:41:33;7.80;;;7.20;;
15899;SDS011;8048;50.644;6.184;2022-08-18T16:43:58;7.90;;;6.77;;
15899;SDS011;8048;50.644;6.184;2022-08-18T16:46:24;7.20;;;6.70;;
15899;SDS011;8048;50.644;6.184;2022-08-18T16:48:51;8.43;;;7.73;;
15899;SDS011;8048;50.644;6.184;2022-08-18T16:51:19;7.87;;;7.37;;
15899;SDS011;8048;50.644;6.184;2022-08-18T16:53:46;8.57;;;7.97;;
15899;SDS011;8048;50.644;6.184;2022-08-18T16:56:17;7.00;;;6.50;;
15899;SDS011;8048;50.644;6.184;2022-08-18T16:58:45;6.07;;;5.57;;
15899;SDS011;8048;50.644;6.184;2022-08-18T17:01:29;10.43;;;7.30;;
15899;SDS011;8048;50.644;6.184;2022-08-18T17:04:15;7.63;;;7.03;;
15899;SDS011;8048;50.644;6.184;2022-08-18T17:06:43;6.10;;;5.53;;
15899;SDS011;8048;50.644;6.184;2022-08-18T17:09:09;6.77;;;6.27;;
15899;SDS011;8048;50.644;6.184;2022-08-18T17:11:36;7.83;;;7.13;;
15899;SDS011;8048;50.644;6.184;2022-08-18T17:14:03;7.40;;;6.63;;
15899;SDS011;8048;50.644;6.184;2022-08-18T17:16:31;6.50;;;6.10;;
15899;SDS011;8048;50.644;6.184;2022-08-18T17:18:57;7.10;;;6.50;;
15899;SDS011;8048;50.644;6.184;2022-08-18T17:21:25;8.03;;;7.43;;
15899;SDS011;8048;50.644;6.184;2022-08-18T17:23:54;7.83;;;7.13;;
15899;SDS011;8048;50.644;6.184;2022-08-18T17:29:36;7.97;;;7.20;;
15899;SDS011;8048;50.644;6.184;2022-08-18T17:32:13;6.53;;;6.00;;
15899;SDS011;8048;50.644;6.184;2022-08-18T17:34:49;6.70;;;6.30;;
15899;SDS011;8048;50.644;6.184;2022-08-18T17:37:19;7.87;;;7.33;;